LNK131X FYWB-FHSH
Flight info
| Callsign | LNK131X |
|---|---|
| Flight time | N/A |
| Altitude | 34000 |
| Route | WBV DCT XALVI UN183 NIBEK DCT 22S010E 18S000E DCT SH |
| Aircraft | E190/M-SDE3GILORVW/S |
Departure
| Time | 2026-05-06 08:18 |
|---|---|
| Airport | Walvis Bay International Airport (FYWB) |
Arrival
| Time | N/A |
|---|---|
| Airport | Saint Helena International Airport (FHSH) |
| Time | Latitude | Longitude | Altitude | Speed | Heading |
|---|---|---|---|---|---|
| 2026-05-06 07:55 | -22.97820 | 14.63937 | 267 ft | 0 kts | 161° |
| 2026-05-06 08:12 | -22.97825 | 14.63939 | 267 ft | 2 kts | 163° |
| 2026-05-06 08:13 | -22.97862 | 14.63950 | 267 ft | 9 kts | 163° |
| 2026-05-06 08:13 | -22.97912 | 14.63920 | 266 ft | 9 kts | 225° |
| 2026-05-06 08:13 | -22.97982 | 14.63920 | 265 ft | 12 kts | 161° |
| 2026-05-06 08:13 | -22.98079 | 14.63955 | 264 ft | 17 kts | 162° |
| 2026-05-06 08:14 | -22.98144 | 14.64036 | 264 ft | 16 kts | 81° |
| 2026-05-06 08:14 | -22.98110 | 14.64152 | 267 ft | 18 kts | 71° |
| 2026-05-06 08:14 | -22.98070 | 14.64288 | 270 ft | 20 kts | 72° |
| 2026-05-06 08:14 | -22.98023 | 14.64444 | 277 ft | 23 kts | 72° |
| 2026-05-06 08:15 | -22.97973 | 14.64626 | 285 ft | 28 kts | 74° |
| 2026-05-06 08:15 | -22.97905 | 14.64832 | 289 ft | 31 kts | 72° |
| 2026-05-06 08:15 | -22.97833 | 14.65069 | 294 ft | 35 kts | 69° |
| 2026-05-06 08:15 | -22.97754 | 14.65330 | 301 ft | 39 kts | 71° |
| 2026-05-06 08:16 | -22.97672 | 14.65604 | 308 ft | 37 kts | 71° |
| 2026-05-06 08:16 | -22.97595 | 14.65855 | 313 ft | 33 kts | 70° |
| 2026-05-06 08:16 | -22.97527 | 14.66081 | 317 ft | 30 kts | 72° |
| 2026-05-06 08:16 | -22.97414 | 14.66236 | 324 ft | 25 kts | 67° |
| 2026-05-06 08:17 | -22.97472 | 14.66261 | 323 ft | 9 kts | 247° |
| 2026-05-06 08:17 | -22.97494 | 14.66188 | 321 ft | 11 kts | 252° |
| 2026-05-06 08:17 | -22.97541 | 14.66033 | 318 ft | 47 kts | 250° |
| 2026-05-06 08:17 | -22.97707 | 14.65483 | 297 ft | 106 kts | 252° |
| 2026-05-06 08:18 | -22.97997 | 14.64533 | 298 ft | 155 kts | 249° |
| 2026-05-06 08:18 | -22.98351 | 14.63330 | 661 ft | 170 kts | 251° |
| 2026-05-06 08:18 | -22.98659 | 14.62105 | 1452 ft | 173 kts | 253° |
| 2026-05-06 08:18 | -22.98982 | 14.60704 | 1782 ft | 207 kts | 251° |
| 2026-05-06 08:19 | -22.99355 | 14.59099 | 2446 ft | 227 kts | 251° |
| 2026-05-06 08:19 | -22.99772 | 14.57427 | 2846 ft | 240 kts | 250° |
| 2026-05-06 08:19 | -23.00187 | 14.55662 | 3506 ft | 250 kts | 258° |
| 2026-05-06 08:19 | -23.00215 | 14.53662 | 3865 ft | 274 kts | 265° |
| 2026-05-06 08:20 | -23.00242 | 14.51557 | 4558 ft | 282 kts | 266° |
| 2026-05-06 08:20 | -23.00238 | 14.50137 | 5094 ft | 284 kts | 266° |
| 2026-05-06 08:20 | -23.00221 | 14.47977 | 5950 ft | 285 kts | 266° |
| 2026-05-06 08:20 | -23.00199 | 14.45812 | 6789 ft | 287 kts | 267° |
| 2026-05-06 08:21 | -23.00168 | 14.43659 | 7589 ft | 288 kts | 267° |
| 2026-05-06 08:21 | -23.00136 | 14.41482 | 8378 ft | 289 kts | 266° |
| 2026-05-06 08:21 | -23.00105 | 14.39280 | 9188 ft | 292 kts | 266° |
| 2026-05-06 08:21 | -23.00072 | 14.37094 | 10019 ft | 294 kts | 266° |
| 2026-05-06 08:22 | -23.00038 | 14.34841 | 10611 ft | 306 kts | 266° |
| 2026-05-06 08:22 | -23.00002 | 14.32470 | 11116 ft | 319 kts | 266° |
| 2026-05-06 08:22 | -22.99959 | 14.30072 | 11831 ft | 323 kts | 266° |
| 2026-05-06 08:22 | -22.99915 | 14.27615 | 12629 ft | 326 kts | 266° |
| 2026-05-06 08:23 | -22.99870 | 14.25160 | 13450 ft | 328 kts | 265° |
| 2026-05-06 08:23 | -22.99826 | 14.22671 | 14230 ft | 330 kts | 265° |
| 2026-05-06 08:23 | -22.99781 | 14.20165 | 15034 ft | 331 kts | 265° |
| 2026-05-06 08:23 | -22.99736 | 14.17681 | 15843 ft | 331 kts | 266° |
| 2026-05-06 08:24 | -22.99690 | 14.15171 | 16618 ft | 333 kts | 266° |
| 2026-05-06 08:24 | -22.99643 | 14.12642 | 17372 ft | 335 kts | 266° |
| 2026-05-06 08:24 | -22.99596 | 14.10126 | 18086 ft | 337 kts | 266° |
| 2026-05-06 08:24 | -22.99546 | 14.07567 | 18720 ft | 339 kts | 266° |
| 2026-05-06 08:25 | -22.99495 | 14.05023 | 19281 ft | 341 kts | 266° |
| 2026-05-06 08:25 | -22.99443 | 14.02420 | 19849 ft | 343 kts | 266° |
| 2026-05-06 08:25 | -22.99390 | 13.99845 | 20410 ft | 345 kts | 266° |
| 2026-05-06 08:25 | -22.99336 | 13.97214 | 20966 ft | 347 kts | 266° |
| 2026-05-06 08:26 | -22.99282 | 13.94612 | 21492 ft | 349 kts | 266° |
| 2026-05-06 08:26 | -22.99226 | 13.91965 | 22027 ft | 351 kts | 267° |
| 2026-05-06 08:26 | -22.99168 | 13.89302 | 22555 ft | 353 kts | 267° |
| 2026-05-06 08:26 | -22.99110 | 13.86632 | 23085 ft | 355 kts | 267° |
| 2026-05-06 08:27 | -22.99050 | 13.83939 | 23568 ft | 357 kts | 267° |
| 2026-05-06 08:27 | -22.98990 | 13.81257 | 23997 ft | 359 kts | 267° |
| 2026-05-06 08:27 | -22.98928 | 13.78520 | 24387 ft | 361 kts | 267° |
| 2026-05-06 08:27 | -22.98866 | 13.75805 | 24759 ft | 363 kts | 267° |
| 2026-05-06 08:28 | -22.98802 | 13.73044 | 25131 ft | 365 kts | 267° |
| 2026-05-06 08:28 | -22.98738 | 13.70313 | 25480 ft | 367 kts | 268° |
| 2026-05-06 08:28 | -22.98672 | 13.67523 | 25840 ft | 369 kts | 268° |
| 2026-05-06 08:28 | -22.98605 | 13.64753 | 26201 ft | 371 kts | 268° |
| 2026-05-06 08:29 | -22.98537 | 13.61941 | 26556 ft | 373 kts | 268° |
| 2026-05-06 08:29 | -22.98468 | 13.59114 | 26913 ft | 374 kts | 268° |
| 2026-05-06 08:29 | -22.98399 | 13.56303 | 27248 ft | 376 kts | 268° |
| 2026-05-06 08:29 | -22.98327 | 13.53442 | 27579 ft | 378 kts | 268° |
| 2026-05-06 08:30 | -22.98255 | 13.50572 | 27898 ft | 380 kts | 268° |
| 2026-05-06 08:30 | -22.98183 | 13.47728 | 28205 ft | 382 kts | 268° |
| 2026-05-06 08:30 | -22.98108 | 13.44825 | 28508 ft | 384 kts | 268° |
| 2026-05-06 08:30 | -22.98032 | 13.41915 | 28808 ft | 386 kts | 268° |
| 2026-05-06 08:31 | -22.97956 | 13.38984 | 29091 ft | 387 kts | 268° |
| 2026-05-06 08:31 | -22.97879 | 13.36084 | 29369 ft | 389 kts | 268° |
| 2026-05-06 08:31 | -22.97800 | 13.33133 | 29636 ft | 391 kts | 268° |
| 2026-05-06 08:31 | -22.97721 | 13.30169 | 29879 ft | 393 kts | 268° |
| 2026-05-06 08:32 | -22.97641 | 13.27235 | 30134 ft | 394 kts | 268° |
| 2026-05-06 08:32 | -22.97559 | 13.24245 | 30351 ft | 395 kts | 269° |
| 2026-05-06 08:32 | -22.97351 | 13.21283 | 30544 ft | 400 kts | 278° |
| 2026-05-06 08:32 | -22.96592 | 13.18353 | 30783 ft | 403 kts | 283° |
| 2026-05-06 08:33 | -22.95756 | 13.15433 | 31025 ft | 404 kts | 283° |
| 2026-05-06 08:33 | -22.94927 | 13.12552 | 31247 ft | 404 kts | 283° |
| 2026-05-06 08:33 | -22.94080 | 13.09627 | 31471 ft | 405 kts | 283° |
| 2026-05-06 08:33 | -22.93231 | 13.06702 | 31696 ft | 406 kts | 284° |
| 2026-05-06 08:34 | -22.92388 | 13.03807 | 31915 ft | 406 kts | 284° |
| 2026-05-06 08:34 | -22.90672 | 12.97932 | 32362 ft | 408 kts | 284° |
| 2026-05-06 08:34 | -22.89812 | 12.94988 | 32631 ft | 407 kts | 284° |
| 2026-05-06 08:35 | -22.88969 | 12.92110 | 32965 ft | 404 kts | 284° |
| 2026-05-06 08:35 | -22.88115 | 12.89188 | 33279 ft | 402 kts | 284° |
| 2026-05-06 08:35 | -22.87279 | 12.86330 | 33537 ft | 401 kts | 284° |
| 2026-05-06 08:35 | -22.86431 | 12.83441 | 33798 ft | 400 kts | 284° |
| 2026-05-06 08:36 | -22.85588 | 12.80566 | 34060 ft | 398 kts | 284° |
| 2026-05-06 08:36 | -22.84763 | 12.77756 | 34352 ft | 395 kts | 284° |
| 2026-05-06 08:36 | -22.83920 | 12.74884 | 34327 ft | 399 kts | 285° |
| 2026-05-06 08:37 | -22.82210 | 12.69082 | 34180 ft | 412 kts | 285° |
| 2026-05-06 08:37 | -22.80440 | 12.63095 | 34200 ft | 419 kts | 285° |
| 2026-05-06 08:38 | -22.78651 | 12.57051 | 34198 ft | 422 kts | 285° |
| 2026-05-06 08:38 | -22.76860 | 12.51005 | 34205 ft | 422 kts | 285° |
| 2026-05-06 08:39 | -22.75069 | 12.44971 | 34201 ft | 423 kts | 285° |
| 2026-05-06 08:39 | -22.73257 | 12.38873 | 34192 ft | 423 kts | 285° |
| 2026-05-06 08:40 | -22.71451 | 12.32805 | 34192 ft | 424 kts | 285° |
| 2026-05-06 08:40 | -22.69646 | 12.26748 | 34209 ft | 424 kts | 285° |
| 2026-05-06 08:41 | -22.67834 | 12.20679 | 34209 ft | 425 kts | 285° |
| 2026-05-06 08:41 | -22.66009 | 12.14576 | 34204 ft | 425 kts | 285° |
| 2026-05-06 08:42 | -22.64188 | 12.08496 | 34206 ft | 425 kts | 285° |
| 2026-05-06 08:42 | -22.62370 | 12.02432 | 34206 ft | 425 kts | 285° |
| 2026-05-06 08:43 | -22.60533 | 11.96318 | 34206 ft | 425 kts | 285° |
| 2026-05-06 08:43 | -22.58701 | 11.90227 | 34205 ft | 426 kts | 285° |
| 2026-05-06 08:44 | -22.56874 | 11.84161 | 34208 ft | 426 kts | 285° |
| 2026-05-06 08:44 | -22.55029 | 11.78049 | 34208 ft | 426 kts | 286° |
| 2026-05-06 08:45 | -22.53185 | 11.71945 | 34209 ft | 426 kts | 286° |
| 2026-05-06 08:45 | -22.51349 | 11.65879 | 34207 ft | 427 kts | 286° |
| 2026-05-06 08:46 | -22.49505 | 11.59797 | 34209 ft | 427 kts | 286° |
| 2026-05-06 08:46 | -22.47645 | 11.53670 | 34205 ft | 427 kts | 286° |
| 2026-05-06 08:47 | -22.45792 | 11.47574 | 34207 ft | 427 kts | 286° |
| 2026-05-06 08:47 | -22.43936 | 11.41479 | 34205 ft | 427 kts | 286° |
| 2026-05-06 08:48 | -22.42067 | 11.35349 | 34204 ft | 428 kts | 286° |
| 2026-05-06 08:48 | -22.40205 | 11.29254 | 34203 ft | 428 kts | 286° |
| 2026-05-06 08:49 | -22.38341 | 11.23159 | 34205 ft | 428 kts | 286° |
| 2026-05-06 08:49 | -22.36472 | 11.17059 | 34207 ft | 429 kts | 286° |
| 2026-05-06 08:50 | -22.34587 | 11.10913 | 34204 ft | 429 kts | 286° |
| 2026-05-06 08:50 | -22.32709 | 11.04801 | 34204 ft | 430 kts | 287° |
| 2026-05-06 08:51 | -22.30820 | 10.98663 | 34206 ft | 430 kts | 287° |
| 2026-05-06 08:51 | -22.28936 | 10.92548 | 34204 ft | 430 kts | 287° |
| 2026-05-06 08:52 | -22.27052 | 10.86444 | 34202 ft | 431 kts | 287° |
| 2026-05-06 08:52 | -22.25146 | 10.80277 | 34205 ft | 431 kts | 287° |
| 2026-05-06 08:53 | -22.23250 | 10.74150 | 34201 ft | 432 kts | 287° |
| 2026-05-06 08:53 | -22.21351 | 10.68026 | 34203 ft | 432 kts | 287° |
| 2026-05-06 08:54 | -22.19431 | 10.61839 | 34198 ft | 432 kts | 287° |
| 2026-05-06 08:54 | -22.17520 | 10.55694 | 34200 ft | 433 kts | 287° |
| 2026-05-06 08:55 | -22.15601 | 10.49531 | 34201 ft | 433 kts | 287° |
| 2026-05-06 08:55 | -22.13683 | 10.43381 | 34200 ft | 434 kts | 287° |
| 2026-05-06 08:56 | -22.11762 | 10.37230 | 34194 ft | 434 kts | 287° |
| 2026-05-06 08:56 | -22.09825 | 10.31037 | 34207 ft | 435 kts | 287° |
| 2026-05-06 08:57 | -22.07892 | 10.24865 | 34204 ft | 435 kts | 287° |
| 2026-05-06 08:57 | -22.05942 | 10.18649 | 34203 ft | 436 kts | 287° |
| 2026-05-06 08:58 | -22.04002 | 10.12477 | 34203 ft | 436 kts | 287° |
| 2026-05-06 08:58 | -22.02060 | 10.06302 | 34199 ft | 436 kts | 288° |
| 2026-05-06 08:59 | -22.00099 | 10.00075 | 34196 ft | 437 kts | 288° |
| 2026-05-06 08:59 | -21.97946 | 9.93971 | 34191 ft | 438 kts | 290° |
| 2026-05-06 09:00 | -21.95692 | 9.87875 | 34200 ft | 438 kts | 290° |
| 2026-05-06 09:00 | -21.93468 | 9.81763 | 34201 ft | 438 kts | 290° |
| 2026-05-06 09:01 | -21.91245 | 9.75635 | 34199 ft | 438 kts | 290° |
| 2026-05-06 09:01 | -21.89032 | 9.69543 | 34196 ft | 439 kts | 290° |
| 2026-05-06 09:02 | -21.86814 | 9.63443 | 34203 ft | 439 kts | 290° |
| 2026-05-06 09:02 | -21.84580 | 9.57310 | 34207 ft | 439 kts | 290° |
| 2026-05-06 09:03 | -21.82359 | 9.51217 | 34199 ft | 439 kts | 290° |
| 2026-05-06 09:03 | -21.80121 | 9.45090 | 34202 ft | 439 kts | 290° |
| 2026-05-06 09:04 | -21.77885 | 9.38977 | 34204 ft | 439 kts | 290° |
| 2026-05-06 09:04 | -21.75642 | 9.32849 | 34200 ft | 439 kts | 290° |
| 2026-05-06 09:05 | -21.73407 | 9.26750 | 34203 ft | 439 kts | 290° |
| 2026-05-06 09:05 | -21.71171 | 9.20659 | 34203 ft | 439 kts | 290° |
| 2026-05-06 09:06 | -21.68933 | 9.14570 | 34204 ft | 439 kts | 290° |
| 2026-05-06 09:06 | -21.67061 | 9.09484 | 34204 ft | 439 kts | 290° |
| 2026-05-06 09:07 | -21.64443 | 9.02378 | 34201 ft | 439 kts | 290° |
| 2026-05-06 09:07 | -21.62199 | 8.96295 | 34201 ft | 439 kts | 290° |
| 2026-05-06 09:08 | -21.59938 | 8.90177 | 34200 ft | 439 kts | 290° |
| 2026-05-06 09:08 | -21.58061 | 8.85102 | 34203 ft | 438 kts | 290° |
| 2026-05-06 09:09 | -21.55815 | 8.79036 | 34202 ft | 438 kts | 290° |
| 2026-05-06 09:09 | -21.53564 | 8.72967 | 34207 ft | 439 kts | 290° |
| 2026-05-06 09:10 | -21.51300 | 8.66868 | 34204 ft | 439 kts | 290° |
| 2026-05-06 09:10 | -21.49040 | 8.60789 | 34206 ft | 439 kts | 290° |
| 2026-05-06 09:11 | -21.46776 | 8.54707 | 34205 ft | 439 kts | 290° |
| 2026-05-06 09:11 | -21.44512 | 8.48635 | 34202 ft | 439 kts | 290° |
| 2026-05-06 09:12 | -21.42244 | 8.42558 | 34206 ft | 438 kts | 290° |
| 2026-05-06 09:12 | -21.39978 | 8.36495 | 34204 ft | 438 kts | 290° |
| 2026-05-06 09:13 | -21.37698 | 8.30400 | 34197 ft | 438 kts | 290° |
| 2026-05-06 09:13 | -21.35428 | 8.24341 | 34205 ft | 439 kts | 290° |
| 2026-05-06 09:14 | -21.33159 | 8.18291 | 34203 ft | 439 kts | 290° |
| 2026-05-06 09:14 | -21.30873 | 8.12206 | 34202 ft | 438 kts | 290° |
| 2026-05-06 09:15 | -21.28601 | 8.06164 | 34199 ft | 439 kts | 290° |
| 2026-05-06 09:15 | -21.26323 | 8.00111 | 34199 ft | 438 kts | 290° |
| 2026-05-06 09:16 | -21.24030 | 7.94031 | 34201 ft | 438 kts | 290° |
| 2026-05-06 09:16 | -21.21745 | 7.87977 | 34195 ft | 439 kts | 290° |
| 2026-05-06 09:17 | -21.19462 | 7.81938 | 34199 ft | 439 kts | 290° |
| 2026-05-06 09:17 | -21.17162 | 7.75857 | 34200 ft | 439 kts | 290° |
| 2026-05-06 09:18 | -21.14875 | 7.69824 | 34196 ft | 439 kts | 290° |
| 2026-05-06 09:18 | -21.12586 | 7.63790 | 34196 ft | 439 kts | 290° |
| 2026-05-06 09:19 | -21.10273 | 7.57699 | 34190 ft | 439 kts | 290° |
| 2026-05-06 09:19 | -21.07977 | 7.51664 | 34194 ft | 439 kts | 291° |
| 2026-05-06 09:20 | -21.05667 | 7.45597 | 34193 ft | 439 kts | 291° |
| 2026-05-06 09:20 | -21.03364 | 7.39557 | 34194 ft | 439 kts | 291° |
| 2026-05-06 09:21 | -21.01063 | 7.33530 | 34193 ft | 439 kts | 291° |
| 2026-05-06 09:21 | -20.98745 | 7.27464 | 34197 ft | 439 kts | 291° |
| 2026-05-06 09:22 | -20.96439 | 7.21438 | 34196 ft | 439 kts | 291° |
| 2026-05-06 09:22 | -20.94127 | 7.15404 | 34195 ft | 439 kts | 291° |
| 2026-05-06 09:23 | -20.91800 | 7.09339 | 34192 ft | 439 kts | 291° |
| 2026-05-06 09:23 | -20.89481 | 7.03302 | 34194 ft | 439 kts | 291° |
| 2026-05-06 09:24 | -20.87162 | 6.97273 | 34192 ft | 439 kts | 291° |
| 2026-05-06 09:24 | -20.84841 | 6.91245 | 34192 ft | 439 kts | 291° |
| 2026-05-06 09:25 | -20.82515 | 6.85211 | 34193 ft | 439 kts | 291° |
| 2026-05-06 09:25 | -20.80178 | 6.79155 | 34197 ft | 439 kts | 291° |
| 2026-05-06 09:26 | -20.77856 | 6.73147 | 34194 ft | 439 kts | 291° |
| 2026-05-06 09:26 | -20.75514 | 6.67094 | 34197 ft | 439 kts | 291° |
| 2026-05-06 09:27 | -20.73187 | 6.61083 | 34192 ft | 439 kts | 291° |
| 2026-05-06 09:27 | -20.70857 | 6.55076 | 34197 ft | 439 kts | 291° |
| 2026-05-06 09:28 | -20.68521 | 6.49062 | 34196 ft | 439 kts | 291° |
| 2026-05-06 09:28 | -20.66189 | 6.43062 | 34198 ft | 439 kts | 291° |
| 2026-05-06 09:29 | -20.63839 | 6.37019 | 34195 ft | 439 kts | 291° |
| 2026-05-06 09:29 | -20.61505 | 6.31031 | 34198 ft | 439 kts | 291° |
| 2026-05-06 09:30 | -20.59164 | 6.25030 | 34196 ft | 439 kts | 291° |
| 2026-05-06 09:30 | -20.56811 | 6.18999 | 34197 ft | 439 kts | 291° |
| 2026-05-06 09:31 | -20.54469 | 6.13013 | 34195 ft | 439 kts | 291° |
| 2026-05-06 09:31 | -20.52118 | 6.07010 | 34195 ft | 438 kts | 291° |
| 2026-05-06 09:32 | -20.49769 | 6.01009 | 34196 ft | 439 kts | 291° |
| 2026-05-06 09:32 | -20.47417 | 5.95013 | 34197 ft | 438 kts | 291° |
| 2026-05-06 09:33 | -20.45070 | 5.89036 | 34199 ft | 438 kts | 291° |
| 2026-05-06 09:33 | -20.42700 | 5.83010 | 34200 ft | 438 kts | 291° |
| 2026-05-06 09:34 | -20.40351 | 5.77046 | 34197 ft | 438 kts | 291° |
| 2026-05-06 09:34 | -20.37989 | 5.71042 | 34196 ft | 438 kts | 291° |
| 2026-05-06 09:35 | -20.35631 | 5.65068 | 34197 ft | 439 kts | 291° |
| 2026-05-06 09:35 | -20.33272 | 5.59089 | 34196 ft | 438 kts | 291° |
| 2026-05-06 09:36 | -20.30905 | 5.53108 | 34196 ft | 439 kts | 291° |
| 2026-05-06 09:36 | -20.28525 | 5.47108 | 34198 ft | 439 kts | 291° |
| 2026-05-06 09:37 | -20.26147 | 5.41097 | 34197 ft | 439 kts | 291° |
| 2026-05-06 09:37 | -20.23781 | 5.35128 | 34197 ft | 439 kts | 291° |
| 2026-05-06 09:38 | -20.21388 | 5.29115 | 34196 ft | 440 kts | 291° |
| 2026-05-06 09:38 | -20.19018 | 5.23146 | 34197 ft | 439 kts | 291° |
| 2026-05-06 09:39 | -20.16635 | 5.17162 | 34193 ft | 440 kts | 291° |
| 2026-05-06 09:39 | -20.14239 | 5.11145 | 34196 ft | 440 kts | 291° |
| 2026-05-06 09:40 | -20.11853 | 5.05168 | 34195 ft | 440 kts | 291° |
| 2026-05-06 09:40 | -20.08254 | 4.96176 | 34199 ft | 440 kts | 291° |
| 2026-05-06 09:41 | -20.05863 | 4.90187 | 34197 ft | 441 kts | 291° |
| 2026-05-06 09:41 | -20.03460 | 4.84187 | 34194 ft | 441 kts | 291° |
| 2026-05-06 09:42 | -20.01044 | 4.78187 | 34197 ft | 441 kts | 292° |
| 2026-05-06 09:42 | -19.98640 | 4.72204 | 34194 ft | 441 kts | 292° |
| 2026-05-06 09:43 | -19.96221 | 4.66180 | 34196 ft | 441 kts | 291° |
| 2026-05-06 09:43 | -19.93811 | 4.60195 | 34199 ft | 441 kts | 292° |
| 2026-05-06 09:44 | -19.91388 | 4.54213 | 34201 ft | 441 kts | 292° |
| 2026-05-06 09:44 | -19.88986 | 4.48233 | 34199 ft | 441 kts | 292° |
| 2026-05-06 09:45 | -19.86564 | 4.42233 | 34199 ft | 441 kts | 292° |
| 2026-05-06 09:45 | -19.84141 | 4.36247 | 34200 ft | 441 kts | 292° |
| 2026-05-06 09:46 | -19.81720 | 4.30268 | 34199 ft | 441 kts | 292° |
| 2026-05-06 09:46 | -19.79296 | 4.24292 | 34198 ft | 442 kts | 292° |
| 2026-05-06 09:47 | -19.76858 | 4.18286 | 34202 ft | 442 kts | 292° |
| 2026-05-06 09:47 | -19.74435 | 4.12317 | 34202 ft | 441 kts | 292° |
| 2026-05-06 09:48 | -19.71998 | 4.06305 | 34203 ft | 441 kts | 292° |
| 2026-05-06 09:48 | -19.69575 | 4.00347 | 34205 ft | 441 kts | 292° |
| 2026-05-06 09:49 | -19.67135 | 3.94372 | 34208 ft | 442 kts | 292° |
| 2026-05-06 09:49 | -19.64691 | 3.88377 | 34203 ft | 441 kts | 292° |
| 2026-05-06 09:50 | -19.62249 | 3.82424 | 34204 ft | 441 kts | 292° |
| 2026-05-06 09:50 | -19.59800 | 3.76448 | 34202 ft | 442 kts | 292° |
| 2026-05-06 09:51 | -19.57358 | 3.70470 | 34202 ft | 441 kts | 292° |
| 2026-05-06 09:51 | -19.54913 | 3.64497 | 34203 ft | 441 kts | 292° |
| 2026-05-06 09:52 | -19.52478 | 3.58549 | 34201 ft | 441 kts | 292° |
| 2026-05-06 09:52 | -19.50034 | 3.52604 | 34200 ft | 441 kts | 292° |
| 2026-05-06 09:53 | -19.47575 | 3.46654 | 34200 ft | 441 kts | 292° |
| 2026-05-06 09:53 | -19.45116 | 3.40656 | 34201 ft | 441 kts | 292° |
| 2026-05-06 09:54 | -19.42663 | 3.34728 | 34206 ft | 441 kts | 292° |
| 2026-05-06 09:54 | -19.40617 | 3.29761 | 34207 ft | 442 kts | 292° |
| 2026-05-06 09:55 | -19.37751 | 3.22806 | 34203 ft | 442 kts | 292° |
| 2026-05-06 09:55 | -19.35690 | 3.17839 | 34201 ft | 442 kts | 292° |
| 2026-05-06 09:56 | -19.33222 | 3.11857 | 34203 ft | 442 kts | 292° |
| 2026-05-06 09:56 | -19.30760 | 3.05915 | 34202 ft | 442 kts | 292° |
| 2026-05-06 09:57 | -19.28276 | 2.99941 | 34202 ft | 442 kts | 292° |
| 2026-05-06 09:57 | -19.25827 | 2.94008 | 34203 ft | 442 kts | 292° |